Record high temperature 100.4°F Record low temperature 10.6°F Record high gust 40 mph Record high average 22.8 mph Record daily rain 11.65 in. Record low windchill 2.7°F Record high barometer 30.773 in. Record low barometer 29.184 in.
Daily high pressure 29.938 in. Daily low pressure 29.712 in. Daily low windchill 45.3°F Daily high heat index 59.4°F Daily high gust speed 21.0 mph NE Daily high average speed 14.1 mph NE
Forecast: increasing clouds with little temp. change.
On the Greenway Weather Data - Tigard OR
LAST READING AT TIME: 11:10 PM DATE: April 24 2014, time of next update: 11:11 pm
Current WeatherNight time/Dry/Overcast Current Temperature 46.2°F (7.9°C), Apparent temp 45.7°F
Maximum Temperature (since midnight)59.4°F at: 1:18 PM Minimum Temperature (since midnight)46.1°F at: 10:15 PM
Average windspeed (ten minute)0.0 mph Wind Direction (ten minute)SE (135°)
Windchill Temperature 46.2°F Maximum Gust (last hour) 0 mph at: 10:08 PM
Maximum Gust (since midnight)21 mph at: 1:31 AM Maximum 1 minute average (since midnight)14.1 mph at: 1:30 AM
Rainfall (last hour)0.00 in. (0.0 mm) Rainfall (since midnight)0.45 in. (11.4 mm) at 6:51 PM
Rainfall This month 3.38 in. (85.9 mm) Rainfall To date this year 25.80 in. (655.3 mm)
Maximum rain per minute (last hour)0.00 in/min Maximum rain per hour (last 6 hours)0.13 in/hour
Yesterdays rainfall 0.51 in DewPoint 46.2°F (Wet Bulb :46.2°F )
Humidity 100 %, Humidex 46.9°F Barometer corrected to msl29.925 in. (1013.4 hPa)
Pressure change -0.00 in. (last hour) Trend (last hour)STEADY
Pressure change (last 12 hours)+0.04 in Pressure change (last 6 hours)+0.01 in
Current Solar 0 W/Mē
Maximum solar (since midnight) 0 W/Mē Minimum solar (since midnight)0 W/Mē
Current 00:00 hours of sunshine today, current sky: Night time/Dry/Overcast
Sunshine hours for the year: 163:05 hrs Sunshine hours for the month: 00:00 hrs
Current evapotranspiration 0.02 inches per day. Yesterday's reading 0.01

This page is updated from recent data collected by a DAVIS VANTAGE PRO weather station Use the Reload or Refresh facility on your browser to retrieve the latest data.


Click here for the last 24 hour graph
Click here for the last 48 hour graph
Click here for the last 72 hour graph
Click here for the month to date graph


Weather report/Warning/Metars

PORTLAND-HILLSBORO AIRPORT, OR, United States (KHIO) 45-33N 122-57W 68M
Apr 25, 2014 - 01:53 AM EDT / 2014.04.25 0553 UTC
Wind: Calm:0
Visibility: 10 mile(s):0
Sky conditions: overcast
Temperature: 48.0 F (8.9 C)
Dew Point: 39.9 F (4.4 C)
Relative Humidity: 73%
Pressure (altimeter): 29.92 in. Hg (1013 hPa)
Pressure tendency: 0.01 inches (0.5 hPa) higher than three hours ago
ob: KHIO 250553Z AUTO 00000KT 10SM OVC043 09/04 A2992 RMK AO2 SLP133 60000 T00890044 10128 20083 52005
cycle: 6
PORTLAND INTERNATIONAL  AIRPORT, OR, United States (KPDX) 45-35N 122-36W 7M
Apr 25, 2014 - 01:53 AM EDT / 2014.04.25 0553 UTC
Wind: from the E (090 degrees) at 5 MPH (4 KT):0
Visibility: 10 mile(s):0
Sky conditions: overcast
Temperature: 46.9 F (8.3 C)
Dew Point: 44.1 F (6.7 C)
Relative Humidity: 89%
Pressure (altimeter): 29.93 in. Hg (1013 hPa)
Pressure tendency: 0.01 inches (0.5 hPa) higher than three hours ago
ob: KPDX 250553Z 09004KT 10SM BKN055 BKN065 OVC090 08/07 A2993 RMK AO2 SLP134 60001 T00830067 10139 20083 50005
cycle: 6
PORTLAND-TROUTDALE AIRPORT, OR, United States (KTTD) 45-33N 122-25W 14M
Apr 25, 2014 - 01:53 AM EDT / 2014.04.25 0553 UTC
Wind: from the E (100 degrees) at 6 MPH (5 KT):0
Visibility: 10 mile(s):0
Sky conditions: overcast
Temperature: 48.0 F (8.9 C)
Dew Point: 43.0 F (6.1 C)
Relative Humidity: 82%
Pressure (altimeter): 29.92 in. Hg (1013 hPa)
Pressure tendency: 0.01 inches (0.3 hPa) higher than three hours ago
ob: KTTD 250553Z AUTO 10005KT 10SM FEW038 BKN080 OVC100 09/06 A2992 RMK AO2 SLP132 60000 T00890061 10139 20078 50003
cycle: 6
MCMINNVILLE MUNICIPAL AIRPORT , OR, United States (KMMV) 45-12N 123-08W 48M
Apr 25, 2014 - 01:53 AM EDT / 2014.04.25 0553 UTC
Wind: from the SSW (200 degrees) at 5 MPH (4 KT):0
Visibility: 10 mile(s):0
Sky conditions: overcast
Temperature: 48.0 F (8.9 C)
Dew Point: 45.0 F (7.2 C)
Relative Humidity: 89%
Pressure (altimeter): 29.94 in. Hg (1013 hPa)
Pressure tendency: 0.01 inches (0.4 hPa) higher than three hours ago
ob: KMMV 250553Z AUTO 20004KT 10SM OVC045 09/07 A2994 RMK AO2 SLP136 60007 T00890072 10133 20078 51004 
cycle: 6
SALEM MCNARY FIELD, OR, United States (KSLE) 44-54N 123-00W 59M
Apr 25, 2014 - 01:56 AM EDT / 2014.04.25 0556 UTC
Wind: from the SSE (150 degrees) at 6 MPH (5 KT):0
Visibility: 10 mile(s):0
Sky conditions: overcast
Temperature: 48.0 F (8.9 C)
Dew Point: 43.0 F (6.1 C)
Relative Humidity: 82%
Pressure (altimeter): 29.92 in. Hg (1013 hPa)
Pressure tendency: 0.01 inches (0.3 hPa) higher than three hours ago
ob: KSLE 250556Z AUTO 15005KT 10SM OVC075 09/06 A2992 RMK AO2 SLP134 60000 T00890061 10133 20089 50003
cycle: 6


Sunset at:
8:07 pm

Moonrise at:
3:39 am 04/24/14

Moonset at:
3:11 pm 04/24/14

First Quarter  7 April 2014
Full moon  15 April 2014
Last Quarter22 April 2014
New moon 29 April 2014
Moon age: 24 days,6 hours,54 minutes,28%
Hours of possible daylight today was 13:57



Use the RELOAD facility on your browser to retrieve the latest data.

Click here for current Fire weather info
Click here for the daily CLIMATOLOGICAL SUMMARY
Click here for a daily update of the averages/extremes to date for the month




Created by "Weather Display" software version 10.37R Build 81 at this start time/date 10:02 am 4/16/2014




On The Greenway Weather Web Site

 
 
HELP US OUT
Help us keep this weather station on the web. for the Tigard / Portland internet users to use. If you would like to help, click the donate button below
 
This site is purely funded by donations and by myself (Ray Cooper)
Anything you can do will help keep this station on the net
Average cost per year is $665 to publish and host this site excluding the cost of the weather equipment
Buyastrostuff.com is kind enough to host our DNS and email at no cost.
THANKS GUYS & Gals for helping
Have a Question,or just want to talk. Contact me at:
Ray Cooper @ Buyastrostuff.com